Time;durP1;ratioP1;P1;durP2;ratioP2;P2;SDS_P1;SDS_P2;PMS_P1;PMS_P2;Temp;Humidity;BMP_temperature;BMP_pressure;BME280_temperature;BME280_humidity;BME280_pressure;Samples;Min_cycle;Max_cycle;Signal;HPM_P1;HPM_P2
2022/08/25 00:00:46;;;;;;;;;;;25.10;99.90;;;;;;5077033;28;19965;-70
2022/08/25 00:03:12;;;;;;;;;;;25.20;99.90;;;;;;5080094;28;19924;-71
2022/08/25 00:05:38;;;;;;;;;;;25.10;99.90;;;;;;5081166;28;19942;-71
2022/08/25 00:08:05;;;;;;;;;;;25.20;99.90;;;;;;5081227;28;20487;-71
2022/08/25 00:10:32;;;;;;;;;;;25.20;99.90;;;;;;5079289;28;19920;-70
2022/08/25 00:12:58;;;;;;;;;;;25.20;99.90;;;;;;5081143;28;19989;-70
2022/08/25 00:15:23;;;;;;;;;;;25.10;99.90;;;;;;5078810;28;19959;-71
2022/08/25 00:17:50;;;;;;;;;;;25.10;99.90;;;;;;5079270;28;19932;-71
2022/08/25 00:20:15;;;;;;;;;;;25.10;99.90;;;;;;5080121;28;19924;-71
2022/08/25 00:22:41;;;;;;;;;;;25.10;99.90;;;;;;5079095;28;19916;-71
2022/08/25 00:25:07;;;;;;;;;;;25.10;99.90;;;;;;5080028;28;19947;-71
2022/08/25 00:27:32;;;;;;;;;;;25.10;99.90;;;;;;5078862;28;19920;-70
2022/08/25 00:30:00;;;;;;;;;;;25.00;99.90;;;;;;5077825;28;20424;-71
2022/08/25 00:32:26;;;;;;;;;;;25.00;99.90;;;;;;5081330;28;19919;-70
2022/08/25 00:34:52;;;;;;;;;;;24.90;99.90;;;;;;5062620;28;19921;-70
2022/08/25 00:37:18;;;;;;;;;;;24.80;99.90;;;;;;5074898;28;19920;-71
2022/08/25 00:39:43;;;;;;;;;;;24.80;99.90;;;;;;5078993;28;19916;-71
2022/08/25 00:42:09;;;;;;;;;;;24.80;99.90;;;;;;5079543;28;21013;-72
2022/08/25 00:44:35;;;;;;;;;;;24.80;99.90;;;;;;5080565;28;20393;-71
2022/08/25 00:47:02;;;;;;;;;;;24.70;99.90;;;;;;5078566;28;19921;-71
2022/08/25 00:49:48;;;;;;;;;;;24.80;99.90;;;;;;5081914;28;20029;-71
2022/08/25 00:52:16;;;;;;;;;;;24.80;99.90;;;;;;5079096;28;20488;-71
2022/08/25 00:54:45;;;;;;;;;;;24.80;99.90;;;;;;5060066;28;20449;-71
2022/08/25 00:57:11;;;;;;;;;;;24.80;99.90;;;;;;5066674;28;19916;-70
2022/08/25 00:59:37;;;;;;;;;;;24.80;99.90;;;;;;5065381;28;19920;-69
2022/08/25 01:02:04;;;;;;;;;;;24.80;99.90;;;;;;5060155;28;20436;-71
2022/08/25 01:04:30;;;;;;;;;;;24.80;99.90;;;;;;5078738;28;19959;-71
2022/08/25 01:06:56;;;;;;;;;;;24.80;99.90;;;;;;5078774;28;19944;-70
2022/08/25 01:09:22;;;;;;;;;;;24.80;99.90;;;;;;5063880;28;19926;-71
2022/08/25 01:11:47;;;;;;;;;;;24.80;99.90;;;;;;5079246;28;19916;-71
2022/08/25 01:14:15;;;;;;;;;;;24.90;99.90;;;;;;5081989;28;20050;-70
2022/08/25 01:16:42;;;;;;;;;;;24.90;99.90;;;;;;5076056;28;19913;-71
2022/08/25 01:19:09;;;;;;;;;;;25.00;99.90;;;;;;5078898;28;19923;-71
2022/08/25 01:21:42;;;;;;;;;;;25.00;99.90;;;;;;5080934;28;19927;-71
2022/08/25 01:24:08;;;;;;;;;;;25.00;99.90;;;;;;5078608;28;19924;-70
2022/08/25 01:26:34;;;;;;;;;;;25.00;99.90;;;;;;5076013;28;20270;-70
2022/08/25 01:29:20;;;;;;;;;;;25.00;99.90;;;;;;5084232;28;19927;-70
2022/08/25 01:31:50;;;;;;;;;;;25.00;99.90;;;;;;5078132;28;19912;-70
2022/08/25 01:34:16;;;;;;;;;;;25.00;99.90;;;;;;5080261;28;19959;-70
2022/08/25 01:36:43;;;;;;;;;;;25.00;99.90;;;;;;5075759;28;19957;-71
2022/08/25 01:39:09;;;;;;;;;;;24.80;99.90;;;;;;5075867;28;20353;-70
2022/08/25 01:41:47;;;;;;;;;;;24.90;99.90;;;;;;5073953;28;20044;-72
2022/08/25 01:44:13;;;;;;;;;;;24.90;99.90;;;;;;5076929;28;19919;-71
2022/08/25 01:46:38;;;;;;;;;;;24.90;99.90;;;;;;5079166;28;19985;-71
2022/08/25 01:49:04;;;;;;;;;;;24.80;99.90;;;;;;5082461;28;20003;-70
2022/08/25 01:51:34;;;;;;;;;;;24.80;99.90;;;;;;5077627;28;20285;-70
2022/08/25 01:53:59;;;;;;;;;;;24.80;99.90;;;;;;5074164;28;19927;-69
2022/08/25 01:56:25;;;;;;;;;;;24.80;99.90;;;;;;5080541;28;19920;-71
2022/08/25 01:58:52;;;;;;;;;;;24.70;99.90;;;;;;5083836;28;20000;-69
2022/08/25 02:01:19;;;;;;;;;;;24.70;99.90;;;;;;5078769;28;20034;-70
2022/08/25 02:03:46;;;;;;;;;;;24.60;99.90;;;;;;5081388;28;19916;-70
2022/08/25 02:06:12;;;;;;;;;;;24.70;99.90;;;;;;5084132;28;19916;-71
2022/08/25 02:08:38;;;;;;;;;;;24.60;99.90;;;;;;5075122;28;19921;-70
2022/08/25 02:11:04;;;;;;;;;;;24.60;99.90;;;;;;5080265;28;19963;-70
2022/08/25 02:13:29;;;;;;;;;;;24.70;99.90;;;;;;5081051;28;19912;-70
2022/08/25 02:15:56;;;;;;;;;;;24.60;99.90;;;;;;5078171;28;20271;-70
2022/08/25 02:18:21;;;;;;;;;;;24.60;99.90;;;;;;5081532;28;19927;-70
2022/08/25 02:20:47;;;;;;;;;;;24.60;99.90;;;;;;5080369;28;20026;-70
2022/08/25 02:23:13;;;;;;;;;;;24.60;99.90;;;;;;5085564;28;19999;-70
2022/08/25 02:25:39;;;;;;;;;;;24.70;99.90;;;;;;5080739;28;19916;-70
2022/08/25 02:28:05;;;;;;;;;;;24.60;99.90;;;;;;5081665;28;19931;-71
2022/08/25 02:30:31;;;;;;;;;;;24.60;99.90;;;;;;5081158;28;19920;-71
2022/08/25 02:32:57;;;;;;;;;;;24.60;99.90;;;;;;5086350;28;20356;-70
2022/08/25 02:35:23;;;;;;;;;;;24.60;99.90;;;;;;5080406;28;19919;-70
2022/08/25 02:37:51;;;;;;;;;;;24.60;99.90;;;;;;5079338;28;19913;-71
2022/08/25 02:40:17;;;;;;;;;;;24.60;99.90;;;;;;5081689;28;19959;-71
2022/08/25 02:42:43;;;;;;;;;;;24.60;99.90;;;;;;5085792;28;19916;-72
2022/08/25 02:45:09;;;;;;;;;;;24.60;99.90;;;;;;5090068;28;19916;-72
2022/08/25 02:47:36;;;;;;;;;;;24.60;99.90;;;;;;5078116;28;19939;-71
2022/08/25 02:50:03;;;;;;;;;;;24.60;99.90;;;;;;5087196;28;19967;-71
2022/08/25 02:52:28;;;;;;;;;;;24.60;99.90;;;;;;5073892;28;20106;-71
2022/08/25 02:54:54;;;;;;;;;;;24.60;99.90;;;;;;5086685;28;19920;-71
2022/08/25 02:57:20;;;;;;;;;;;24.60;99.90;;;;;;5080406;28;19920;-71
2022/08/25 02:59:47;;;;;;;;;;;24.50;99.90;;;;;;5078474;28;19994;-71
2022/08/25 03:02:13;;;;;;;;;;;24.60;99.90;;;;;;5079875;28;20382;-70
2022/08/25 03:04:38;;;;;;;;;;;24.60;99.90;;;;;;5082265;28;19912;-69
2022/08/25 03:07:04;;;;;;;;;;;24.60;99.90;;;;;;5093917;28;20432;-71
2022/08/25 03:09:30;;;;;;;;;;;24.60;99.90;;;;;;5081034;28;20002;-69
2022/08/25 03:11:55;;;;;;;;;;;24.60;99.90;;;;;;5081839;28;19958;-71
2022/08/25 03:14:21;;;;;;;;;;;24.60;99.90;;;;;;5079281;28;19961;-70
2022/08/25 03:16:46;;;;;;;;;;;24.60;99.90;;;;;;5081378;28;20258;-71
2022/08/25 03:19:12;;;;;;;;;;;24.70;99.90;;;;;;5086116;28;20065;-70
2022/08/25 03:21:38;;;;;;;;;;;24.70;99.90;;;;;;5078834;28;19946;-71
2022/08/25 03:24:04;;;;;;;;;;;24.60;99.90;;;;;;5079133;28;19930;-71
2022/08/25 03:29:14;;;;;;;;;;;24.70;99.90;;;;;;5085727;28;20042;-71
2022/08/25 03:31:41;;;;;;;;;;;24.70;99.90;;;;;;5081132;28;19995;-71
2022/08/25 03:34:08;;;;;;;;;;;24.70;99.90;;;;;;5084634;28;19971;-71
2022/08/25 03:36:34;;;;;;;;;;;24.70;99.90;;;;;;5062544;28;19955;-70
2022/08/25 03:38:59;;;;;;;;;;;24.70;99.90;;;;;;5086094;28;19951;-70
2022/08/25 03:41:28;;;;;;;;;;;24.70;99.90;;;;;;5085065;28;20396;-70
2022/08/25 03:43:54;;;;;;;;;;;24.70;99.90;;;;;;5091442;28;19912;-69
2022/08/25 03:46:21;;;;;;;;;;;24.60;99.90;;;;;;5099648;28;19935;-70
2022/08/25 03:48:47;;;;;;;;;;;24.60;99.90;;;;;;5108697;28;19934;-70
2022/08/25 03:51:24;;;;;;;;;;;24.60;99.90;;;;;;5101746;28;19916;-71
2022/08/25 03:53:49;;;;;;;;;;;24.60;99.90;;;;;;5102550;28;19959;-71
2022/08/25 03:56:15;;;;;;;;;;;24.60;99.90;;;;;;5102646;28;19912;-71
2022/08/25 03:58:41;;;;;;;;;;;24.60;99.90;;;;;;5097569;28;19920;-69
2022/08/25 04:01:07;;;;;;;;;;;24.60;99.90;;;;;;5101476;28;19955;-70
2022/08/25 04:03:33;;;;;;;;;;;24.50;99.90;;;;;;5085643;28;19931;-70
2022/08/25 04:06:02;;;;;;;;;;;24.50;99.90;;;;;;5101437;28;19908;-69
2022/08/25 04:08:28;;;;;;;;;;;24.50;99.90;;;;;;5102872;28;19923;-71
2022/08/25 04:10:54;;;;;;;;;;;24.50;99.90;;;;;;5128613;28;19904;-70
2022/08/25 04:13:20;;;;;;;;;;;24.50;99.90;;;;;;5103272;28;19927;-71
2022/08/25 04:18:49;;;;;;;;;;;24.50;99.90;;;;;;5103526;28;19926;-70
2022/08/25 04:21:15;;;;;;;;;;;24.50;99.90;;;;;;5099532;28;19971;-70
2022/08/25 04:23:41;;;;;;;;;;;24.60;99.90;;;;;;5100179;28;19924;-71
2022/08/25 04:26:11;;;;;;;;;;;24.60;99.90;;;;;;5094801;28;19915;-70
2022/08/25 04:28:37;;;;;;;;;;;24.60;99.90;;;;;;5079649;28;20341;-72
2022/08/25 04:31:07;;;;;;;;;;;24.50;99.90;;;;;;5085417;28;19927;-71
2022/08/25 04:33:33;;;;;;;;;;;24.50;99.90;;;;;;5081266;28;19927;-70
2022/08/25 04:35:58;;;;;;;;;;;24.60;99.90;;;;;;5082416;28;19916;-71
2022/08/25 04:38:25;;;;;;;;;;;24.60;99.90;;;;;;5079736;28;19947;-70
2022/08/25 04:41:01;;;;;;;;;;;24.60;99.90;;;;;;5077810;28;19974;-70
2022/08/25 04:43:28;;;;;;;;;;;24.50;99.90;;;;;;5083605;28;19923;-70
2022/08/25 04:45:54;;;;;;;;;;;24.60;99.90;;;;;;5082909;28;20582;-70
2022/08/25 04:48:20;;;;;;;;;;;24.60;99.90;;;;;;5083575;28;20347;-71
2022/08/25 04:51:17;;;;;;;;;;;24.60;99.90;;;;;;5072871;28;20837;-71
2022/08/25 04:53:43;;;;;;;;;;;24.60;99.90;;;;;;5067608;28;19916;-71
2022/08/25 04:56:10;;;;;;;;;;;24.60;99.90;;;;;;5080157;28;19920;-71
2022/08/25 04:58:36;;;;;;;;;;;24.60;99.90;;;;;;5079742;28;19912;-71
2022/08/25 05:01:03;;;;;;;;;;;24.60;99.90;;;;;;5077550;28;19916;-71
2022/08/25 05:03:29;;;;;;;;;;;24.70;99.90;;;;;;5077981;28;19935;-71
2022/08/25 05:05:55;;;;;;;;;;;24.70;99.90;;;;;;5065829;28;19916;-70
2022/08/25 05:08:21;;;;;;;;;;;24.80;99.90;;;;;;5081729;28;19927;-71
2022/08/25 05:10:47;;;;;;;;;;;24.80;99.90;;;;;;5081758;28;20285;-72
2022/08/25 05:13:13;;;;;;;;;;;24.80;99.90;;;;;;5091334;28;20273;-71
2022/08/25 05:15:50;;;;;;;;;;;24.90;99.90;;;;;;5074955;28;19919;-69
2022/08/25 05:18:20;;;;;;;;;;;24.90;99.90;;;;;;5079911;28;19965;-70
2022/08/25 05:20:45;;;;;;;;;;;24.90;99.90;;;;;;5078490;28;19912;-70
2022/08/25 05:23:11;;;;;;;;;;;24.90;99.90;;;;;;5078736;28;19924;-71
2022/08/25 05:25:37;;;;;;;;;;;25.00;99.90;;;;;;5077659;28;20032;-72
2022/08/25 05:28:03;;;;;;;;;;;24.90;99.90;;;;;;5082913;28;19924;-70
2022/08/25 05:30:28;;;;;;;;;;;25.00;99.90;;;;;;5080972;28;20284;-71
2022/08/25 05:32:54;;;;;;;;;;;25.00;99.90;;;;;;5083471;28;19916;-71
2022/08/25 05:35:20;;;;;;;;;;;25.00;99.90;;;;;;5090306;28;20278;-72
2022/08/25 05:37:46;;;;;;;;;;;25.10;99.90;;;;;;5080976;28;20581;-72
2022/08/25 05:40:12;;;;;;;;;;;25.10;99.90;;;;;;5082119;28;19934;-71
2022/08/25 05:42:37;;;;;;;;;;;25.20;99.90;;;;;;5079408;28;20381;-70
2022/08/25 05:45:04;;;;;;;;;;;25.30;99.90;;;;;;5080068;28;21326;-69
2022/08/25 05:47:30;;;;;;;;;;;25.30;99.90;;;;;;5078193;28;19923;-70
2022/08/25 05:49:56;;;;;;;;;;;25.30;99.90;;;;;;5085596;28;19912;-71
2022/08/25 05:52:21;;;;;;;;;;;25.50;99.90;;;;;;5081158;28;19951;-70
2022/08/25 05:54:47;;;;;;;;;;;25.60;99.90;;;;;;5098005;28;19912;-72
2022/08/25 05:57:13;;;;;;;;;;;25.70;99.90;;;;;;5077117;28;19960;-70
2022/08/25 06:00:02;;;;;;;;;;;25.70;99.90;;;;;;5069094;28;19912;-70
2022/08/25 06:02:42;;;;;;;;;;;25.90;99.90;;;;;;5081434;28;19947;-70
2022/08/25 06:05:12;;;;;;;;;;;26.00;99.90;;;;;;5080735;28;19954;-71
2022/08/25 06:07:38;;;;;;;;;;;26.00;99.90;;;;;;5085130;28;19949;-71
2022/08/25 06:10:05;;;;;;;;;;;26.20;99.90;;;;;;5091329;28;20351;-72
2022/08/25 06:12:35;;;;;;;;;;;26.30;99.90;;;;;;5065638;28;19928;-70
2022/08/25 06:15:01;;;;;;;;;;;26.30;99.90;;;;;;5080575;28;20331;-70
2022/08/25 06:17:26;;;;;;;;;;;26.20;99.90;;;;;;5079803;28;19955;-70
2022/08/25 06:19:53;;;;;;;;;;;26.20;99.90;;;;;;5107536;28;19951;-71
2022/08/25 06:22:20;;;;;;;;;;;26.30;99.90;;;;;;5094483;28;19990;-70
2022/08/25 06:24:45;;;;;;;;;;;26.20;99.90;;;;;;5077863;28;19912;-70
2022/08/25 06:27:11;;;;;;;;;;;26.30;99.90;;;;;;5080667;28;19970;-70
2022/08/25 06:29:37;;;;;;;;;;;26.40;99.90;;;;;;5079586;28;19916;-70
2022/08/25 06:32:02;;;;;;;;;;;26.50;99.90;;;;;;5081975;28;20354;-70
2022/08/25 06:34:28;;;;;;;;;;;26.70;99.90;;;;;;5082791;28;19924;-70
2022/08/25 06:36:53;;;;;;;;;;;26.70;99.90;;;;;;5080380;28;20059;-71
2022/08/25 06:39:19;;;;;;;;;;;26.70;99.90;;;;;;5081441;28;19942;-71
2022/08/25 06:41:49;;;;;;;;;;;26.60;99.90;;;;;;5079598;28;19948;-71
2022/08/25 06:44:14;;;;;;;;;;;26.60;99.90;;;;;;5078981;28;20019;-71
2022/08/25 06:46:40;;;;;;;;;;;26.60;99.90;;;;;;5081328;28;20051;-71
2022/08/25 06:49:05;;;;;;;;;;;26.70;99.90;;;;;;5082451;28;19919;-72
2022/08/25 06:51:31;;;;;;;;;;;26.80;99.90;;;;;;5079118;28;19927;-71
2022/08/25 06:53:57;;;;;;;;;;;26.80;99.90;;;;;;5083083;28;20367;-72
2022/08/25 06:56:22;;;;;;;;;;;26.90;99.90;;;;;;5078773;28;20291;-71
2022/08/25 06:58:48;;;;;;;;;;;26.90;99.90;;;;;;5080615;28;20317;-73
2022/08/25 07:01:25;;;;;;;;;;;26.90;99.90;;;;;;5083886;28;19920;-74
2022/08/25 07:03:53;;;;;;;;;;;26.80;99.90;;;;;;5086207;28;19912;-75
2022/08/25 07:06:19;;;;;;;;;;;27.00;99.90;;;;;;5074751;28;20262;-76
2022/08/25 07:08:44;;;;;;;;;;;27.00;99.90;;;;;;5069355;28;19916;-77
2022/08/25 07:11:10;;;;;;;;;;;27.00;99.90;;;;;;5103730;28;20370;-79
2022/08/25 07:13:37;;;;;;;;;;;27.10;99.90;;;;;;5097115;28;19947;-76
2022/08/25 07:16:03;;;;;;;;;;;27.10;99.90;;;;;;5084134;28;19913;-79
2022/08/25 07:18:29;;;;;;;;;;;27.20;99.90;;;;;;5086639;28;19916;-74
2022/08/25 07:20:55;;;;;;;;;;;27.30;99.90;;;;;;5081912;28;19913;-73
2022/08/25 07:23:21;;;;;;;;;;;27.30;99.90;;;;;;5078424;28;19975;-74
2022/08/25 07:25:46;;;;;;;;;;;27.20;99.90;;;;;;5085096;28;20373;-74
2022/08/25 07:28:12;;;;;;;;;;;27.30;99.90;;;;;;5095135;28;19927;-74
2022/08/25 07:30:38;;;;;;;;;;;27.30;99.90;;;;;;5085668;28;19935;-73
2022/08/25 07:33:04;;;;;;;;;;;27.40;99.90;;;;;;5081480;28;19920;-70
2022/08/25 07:35:31;;;;;;;;;;;27.40;99.90;;;;;;5080554;28;19927;-75
2022/08/25 07:37:57;;;;;;;;;;;27.30;99.90;;;;;;5086987;28;19971;-73
2022/08/25 07:40:25;;;;;;;;;;;27.40;99.90;;;;;;5084070;28;20393;-72
2022/08/25 07:42:53;;;;;;;;;;;27.50;99.90;;;;;;5085814;28;19919;-67
2022/08/25 07:45:20;;;;;;;;;;;27.50;99.90;;;;;;5084253;28;20011;-72
2022/08/25 07:47:46;;;;;;;;;;;27.50;99.90;;;;;;5083026;28;20359;-64
2022/08/25 07:50:12;;;;;;;;;;;27.40;99.90;;;;;;5093049;28;19943;-68
2022/08/25 07:52:39;;;;;;;;;;;27.40;99.90;;;;;;5094197;28;19922;-68
2022/08/25 07:55:06;;;;;;;;;;;27.30;99.90;;;;;;5087324;28;20370;-66
2022/08/25 07:57:31;;;;;;;;;;;27.40;99.90;;;;;;5106389;28;19912;-68
2022/08/25 07:59:57;;;;;;;;;;;27.40;99.90;;;;;;5107667;28;19915;-74
2022/08/25 08:02:23;;;;;;;;;;;27.50;99.90;;;;;;5102470;28;19919;-67
2022/08/25 08:04:49;;;;;;;;;;;27.60;99.90;;;;;;5086840;28;20304;-68
2022/08/25 08:07:24;;;;;;;;;;;27.60;99.90;;;;;;5095094;28;20032;-67
2022/08/25 08:09:51;;;;;;;;;;;27.70;99.90;;;;;;5106903;28;20506;-70
2022/08/25 08:12:17;;;;;;;;;;;27.70;99.90;;;;;;5102195;28;19911;-67
2022/08/25 08:14:42;;;;;;;;;;;27.90;99.90;;;;;;5105879;28;19912;-70
2022/08/25 08:17:08;;;;;;;;;;;28.00;99.90;;;;;;5106078;28;19924;-67
2022/08/25 08:19:35;;;;;;;;;;;27.90;99.90;;;;;;5097896;28;20010;-67
2022/08/25 08:22:02;;;;;;;;;;;27.90;99.90;;;;;;5110964;28;19908;-67
2022/08/25 08:24:28;;;;;;;;;;;28.00;99.90;;;;;;5098173;28;19912;-72
2022/08/25 08:26:54;;;;;;;;;;;27.80;99.90;;;;;;5091604;28;20292;-68
2022/08/25 08:29:21;;;;;;;;;;;27.90;99.90;;;;;;5090973;28;19926;-67
2022/08/25 08:31:47;;;;;;;;;;;28.00;99.90;;;;;;5091696;28;19912;-69
2022/08/25 08:34:13;;;;;;;;;;;28.00;99.90;;;;;;5071305;28;19955;-67
2022/08/25 08:36:39;;;;;;;;;;;28.00;99.90;;;;;;5075768;28;19947;-67
2022/08/25 08:39:04;;;;;;;;;;;28.10;99.90;;;;;;5093793;28;19912;-68
2022/08/25 08:44:43;;;;;;;;;;;28.20;99.90;;;;;;5087663;28;19962;-68
2022/08/25 08:47:11;;;;;;;;;;;28.10;99.90;;;;;;5097709;28;20830;-67
2022/08/25 08:49:56;;;;;;;;;;;28.30;99.90;;;;;;5106437;28;19911;-70
2022/08/25 08:55:27;;;;;;;;;;;28.60;99.90;;;;;;5085134;28;20006;-71
2022/08/25 08:57:54;;;;;;;;;;;28.60;99.90;;;;;;5091954;28;19969;-68
2022/08/25 09:00:20;;;;;;;;;;;28.50;99.90;;;;;;5092852;28;19912;-66
2022/08/25 09:02:58;;;;;;;;;;;28.70;99.90;;;;;;5087710;28;19912;-72
2022/08/25 09:05:26;;;;;;;;;;;28.50;99.90;;;;;;5083869;28;19977;-71
2022/08/25 09:07:56;;;;;;;;;;;28.40;99.90;;;;;;5104807;28;19989;-68
2022/08/25 09:10:23;;;;;;;;;;;28.50;99.90;;;;;;5110997;28;19908;-67
2022/08/25 09:12:56;;;;;;;;;;;28.40;99.90;;;;;;5108349;28;19912;-68
2022/08/25 09:18:27;;;;;;;;;;;28.50;99.90;;;;;;5101026;28;19935;-69
2022/08/25 09:21:12;;;;;;;;;;;28.70;99.90;;;;;;5110426;28;19929;-68
2022/08/25 09:23:40;;;;;;;;;;;28.70;99.90;;;;;;5100018;28;19957;-69
2022/08/25 09:29:12;;;;;;;;;;;28.50;99.90;;;;;;5090038;28;20565;-67
2022/08/25 09:31:38;;;;;;;;;;;28.50;99.90;;;;;;5087469;28;19923;-65
2022/08/25 09:34:26;;;;;;;;;;;28.50;99.90;;;;;;5104308;28;20261;-68
2022/08/25 09:36:51;;;;;;;;;;;28.40;99.90;;;;;;5073166;28;20166;-68
2022/08/25 09:39:18;;;;;;;;;;;28.40;99.90;;;;;;5101061;28;19964;-69
2022/08/25 09:41:48;;;;;;;;;;;28.50;99.90;;;;;;5100420;28;19919;-67
2022/08/25 09:44:24;;;;;;;;;;;28.50;99.90;;;;;;5098657;28;19916;-70
2022/08/25 09:47:03;;;;;;;;;;;28.60;99.90;;;;;;5100784;28;20345;-68
2022/08/25 09:49:39;;;;;;;;;;;28.60;99.90;;;;;;5105661;28;20015;-70
2022/08/25 09:52:25;;;;;;;;;;;28.60;99.90;;;;;;5108101;28;20386;-68
2022/08/25 09:54:52;;;;;;;;;;;28.80;99.90;;;;;;5085016;28;20411;-70
2022/08/25 09:57:28;;;;;;;;;;;28.90;99.90;;;;;;5104170;28;20350;-67
2022/08/25 09:59:54;;;;;;;;;;;28.90;99.90;;;;;;5092515;28;19912;-69
2022/08/25 10:02:25;;;;;;;;;;;29.10;99.90;;;;;;5103470;28;20345;-68
2022/08/25 10:04:51;;;;;;;;;;;29.00;99.90;;;;;;5098925;28;19912;-68
2022/08/25 10:07:21;;;;;;;;;;;29.00;99.90;;;;;;5097757;28;20324;-68
2022/08/25 10:09:55;;;;;;;;;;;29.00;99.90;;;;;;5097620;28;19912;-70
2022/08/25 10:12:27;;;;;;;;;;;29.00;99.90;;;;;;5083503;28;19934;-68
2022/08/25 10:14:53;;;;;;;;;;;29.10;99.90;;;;;;5094013;28;20003;-68
2022/08/25 10:17:25;;;;;;;;;;;28.90;99.90;;;;;;5098943;28;19999;-68
2022/08/25 10:20:08;;;;;;;;;;;28.90;99.90;;;;;;5103073;28;20061;-67
2022/08/25 10:22:33;;;;;;;;;;;28.90;99.90;;;;;;5091492;28;19930;-68
2022/08/25 10:24:59;;;;;;;;;;;29.00;99.90;;;;;;5085003;28;19912;-66
2022/08/25 10:27:43;;;;;;;;;;;29.10;99.90;;;;;;5114106;28;19911;-70
2022/08/25 10:30:24;;;;;;;;;;;29.20;99.90;;;;;;5110121;28;20009;-69
2022/08/25 10:33:03;;;;;;;;;;;29.20;99.90;;;;;;5097565;28;19912;-69
2022/08/25 10:38:34;;;;;;;;;;;29.30;99.90;;;;;;5099770;28;19965;-66
2022/08/25 10:41:09;;;;;;;;;;;29.30;99.90;;;;;;5097775;28;19923;-69
2022/08/25 10:43:38;;;;;;;;;;;29.20;99.90;;;;;;5089420;28;20002;-69
2022/08/25 10:46:11;;;;;;;;;;;29.10;99.90;;;;;;5105041;28;19966;-67
2022/08/25 10:48:49;;;;;;;;;;;29.10;99.90;;;;;;5098958;28;20290;-67
2022/08/25 10:51:18;;;;;;;;;;;29.10;99.90;;;;;;5074640;28;20046;-68
2022/08/25 10:53:55;;;;;;;;;;;29.10;99.90;;;;;;5090367;28;19919;-68
2022/08/25 10:56:23;;;;;;;;;;;29.20;99.90;;;;;;5071845;28;19912;-71
2022/08/25 10:59:03;;;;;;;;;;;29.20;99.90;;;;;;5107440;28;19912;-67
2022/08/25 11:01:47;;;;;;;;;;;29.30;99.90;;;;;;5114233;28;19912;-69
2022/08/25 11:04:21;;;;;;;;;;;29.40;99.90;;;;;;5080573;28;19966;-67
2022/08/25 11:06:54;;;;;;;;;;;29.50;99.90;;;;;;5086466;28;19916;-69
2022/08/25 11:12:29;;;;;;;;;;;29.50;99.90;;;;;;5089876;28;19938;-68
2022/08/25 11:14:58;;;;;;;;;;;29.50;99.90;;;;;;5088136;28;19911;-69
2022/08/25 11:17:34;;;;;;;;;;;29.50;99.90;;;;;;5107587;28;19911;-69
2022/08/25 11:20:05;;;;;;;;;;;29.60;99.90;;;;;;5075683;28;19966;-69
2022/08/25 11:22:42;;;;;;;;;;;29.60;99.90;;;;;;5098452;28;19916;-69
2022/08/25 11:25:17;;;;;;;;;;;29.60;99.90;;;;;;5072736;28;20532;-70
2022/08/25 11:28:12;;;;;;;;;;;29.60;99.90;;;;;;5101456;28;19951;-68
2022/08/25 11:30:38;;;;;;;;;;;29.60;99.90;;;;;;5089280;28;19918;-68
2022/08/25 11:33:04;;;;;;;;;;;29.80;99.90;;;;;;5081475;28;19920;-69
2022/08/25 11:35:34;;;;;;;;;;;29.90;99.90;;;;;;5085452;28;19919;-69
2022/08/25 11:38:18;;;;;;;;;;;29.90;99.90;;;;;;5092601;28;19916;-70
2022/08/25 11:41:00;;;;;;;;;;;29.90;99.90;;;;;;5089648;28;20341;-69
2022/08/25 11:43:37;;;;;;;;;;;30.00;99.90;;;;;;5091940;28;20391;-68
2022/08/25 11:46:15;;;;;;;;;;;30.20;99.90;;;;;;5099505;28;19916;-69
2022/08/25 11:48:49;;;;;;;;;;;30.30;99.90;;;;;;5095216;28;19924;-68
2022/08/25 11:51:27;;;;;;;;;;;30.10;99.90;;;;;;5079516;28;19935;-68
2022/08/25 11:54:11;;;;;;;;;;;30.20;99.90;;;;;;5088822;28;20325;-68
2022/08/25 11:56:40;;;;;;;;;;;30.20;99.90;;;;;;5093184;28;19957;-68
2022/08/25 11:59:06;;;;;;;;;;;30.20;99.90;;;;;;5065624;28;20390;-68
2022/08/25 12:01:44;;;;;;;;;;;30.20;99.90;;;;;;5093323;28;19957;-68
2022/08/25 12:04:28;;;;;;;;;;;30.10;99.90;;;;;;5098229;28;19919;-66
2022/08/25 12:07:03;;;;;;;;;;;30.30;99.90;;;;;;5094223;28;19938;-69
2022/08/25 12:09:29;;;;;;;;;;;30.30;99.90;;;;;;5088903;28;19967;-66
2022/08/25 12:11:56;;;;;;;;;;;30.30;99.90;;;;;;5079328;28;20335;-68
2022/08/25 12:14:25;;;;;;;;;;;30.10;99.90;;;;;;5085868;28;19912;-69
2022/08/25 12:16:52;;;;;;;;;;;30.20;99.90;;;;;;5079463;28;20392;-68
2022/08/25 12:19:33;;;;;;;;;;;30.20;99.90;;;;;;5107283;28;19912;-68
2022/08/25 12:22:01;;;;;;;;;;;30.30;99.90;;;;;;5113103;28;19915;-67
2022/08/25 12:24:42;;;;;;;;;;;30.40;99.90;;;;;;5104901;28;19924;-67
2022/08/25 12:27:19;;;;;;;;;;;30.50;99.90;;;;;;5083184;28;19926;-66
2022/08/25 12:29:48;;;;;;;;;;;30.50;99.90;;;;;;5108257;28;20326;-65
2022/08/25 12:32:32;;;;;;;;;;;30.50;99.90;;;;;;5105661;28;19919;-65
2022/08/25 12:35:10;;;;;;;;;;;30.50;99.90;;;;;;5108989;28;19915;-67
2022/08/25 12:37:52;;;;;;;;;;;30.40;99.90;;;;;;5115508;27;19916;-66
2022/08/25 12:40:23;;;;;;;;;;;30.40;99.90;;;;;;5091210;28;20261;-65
2022/08/25 12:42:59;;;;;;;;;;;30.40;99.90;;;;;;5100039;28;20440;-65
2022/08/25 12:45:30;;;;;;;;;;;30.40;99.90;;;;;;5094197;28;19912;-65
2022/08/25 12:48:16;;;;;;;;;;;30.60;99.90;;;;;;5104361;28;20406;-66
2022/08/25 12:50:43;;;;;;;;;;;30.70;99.90;;;;;;5067827;28;19955;-66
2022/08/25 12:53:11;;;;;;;;;;;30.90;99.90;;;;;;5075848;28;20006;-67
2022/08/25 12:55:38;;;;;;;;;;;30.90;99.90;;;;;;5094871;28;19918;-70
2022/08/25 12:58:05;;;;;;;;;;;30.80;99.90;;;;;;5096720;28;19959;-67
2022/08/25 13:00:50;;;;;;;;;;;30.60;99.90;;;;;;5096975;28;19927;-68
2022/08/25 13:03:19;;;;;;;;;;;30.70;99.90;;;;;;5086401;28;19920;-67
2022/08/25 13:05:45;;;;;;;;;;;30.70;99.90;;;;;;5095070;28;19951;-68
2022/08/25 13:08:22;;;;;;;;;;;30.90;99.90;;;;;;5082058;28;19965;-67
2022/08/25 13:10:56;;;;;;;;;;;30.80;99.90;;;;;;5096254;28;19916;-69
2022/08/25 13:13:40;;;;;;;;;;;30.90;99.90;;;;;;5085598;28;19912;-67
2022/08/25 13:16:08;;;;;;;;;;;30.90;99.90;;;;;;5098546;28;20436;-68
2022/08/25 13:18:35;;;;;;;;;;;30.70;99.90;;;;;;5087921;28;19912;-68
2022/08/25 13:21:15;;;;;;;;;;;30.60;99.90;;;;;;5098974;28;19917;-67
2022/08/25 13:23:43;;;;;;;;;;;30.70;99.90;;;;;;5105039;28;19924;-66
2022/08/25 13:26:13;;;;;;;;;;;30.70;99.90;;;;;;5093967;28;20384;-66
2022/08/25 13:28:39;;;;;;;;;;;30.90;99.90;;;;;;5092313;28;19919;-68
2022/08/25 13:31:04;;;;;;;;;;;31.00;99.90;;;;;;5088338;28;20322;-69
2022/08/25 13:33:31;;;;;;;;;;;31.10;99.90;;;;;;5090293;28;19915;-68
2022/08/25 13:38:43;;;;;;;;;;;31.20;99.90;;;;;;5087737;28;19988;-69
2022/08/25 13:41:09;;;;;;;;;;;31.30;99.90;;;;;;5084601;28;19970;-69
2022/08/25 13:43:35;;;;;;;;;;;31.20;99.90;;;;;;5083890;28;19912;-69
2022/08/25 13:46:01;;;;;;;;;;;31.30;99.90;;;;;;5092744;28;19918;-69
2022/08/25 13:48:37;;;;;;;;;;;31.20;99.90;;;;;;5096536;28;20395;-70
2022/08/25 13:51:22;;;;;;;;;;;31.20;99.90;;;;;;5088610;28;20368;-70
2022/08/25 13:53:55;;;;;;;;;;;31.20;99.90;;;;;;5087088;28;19912;-70
2022/08/25 13:56:26;;;;;;;;;;;31.40;99.90;;;;;;5089293;28;19957;-69
2022/08/25 13:58:52;;;;;;;;;;;31.60;99.90;;;;;;5085904;28;20004;-71
2022/08/25 14:01:26;;;;;;;;;;;31.60;99.90;;;;;;5093887;28;19927;-71
2022/08/25 14:03:52;;;;;;;;;;;31.60;99.90;;;;;;5092997;28;19912;-69
2022/08/25 14:06:18;;;;;;;;;;;31.70;99.90;;;;;;5098692;28;19969;-69
2022/08/25 14:08:45;;;;;;;;;;;31.70;99.90;;;;;;5102649;28;19924;-69
2022/08/25 14:11:13;;;;;;;;;;;31.60;99.90;;;;;;5088291;28;19977;-71
2022/08/25 14:13:40;;;;;;;;;;;31.50;99.90;;;;;;5085926;28;19920;-70
2022/08/25 14:16:18;;;;;;;;;;;31.40;99.90;;;;;;5097077;28;20007;-69
2022/08/25 14:18:54;;;;;;;;;;;31.50;99.90;;;;;;5087292;28;20099;-67
2022/08/25 14:21:23;;;;;;;;;;;31.60;99.90;;;;;;5122492;27;19918;-68
2022/08/25 14:23:49;;;;;;;;;;;31.80;99.90;;;;;;5093353;28;20004;-68
2022/08/25 14:26:14;;;;;;;;;;;31.60;99.90;;;;;;5092946;28;19967;-68
2022/08/25 14:28:40;;;;;;;;;;;31.50;99.90;;;;;;5092650;28;19916;-69
2022/08/25 14:31:07;;;;;;;;;;;31.30;99.90;;;;;;5088549;28;19966;-71
2022/08/25 14:33:41;;;;;;;;;;;31.30;99.90;;;;;;5093645;28;19912;-70
2022/08/25 14:36:06;;;;;;;;;;;31.40;99.90;;;;;;5100139;28;19918;-69
2022/08/25 14:38:33;;;;;;;;;;;31.30;99.90;;;;;;5096757;28;19908;-72
2022/08/25 14:40:58;;;;;;;;;;;31.50;99.90;;;;;;5108100;28;19963;-68
2022/08/25 14:43:24;;;;;;;;;;;31.60;99.90;;;;;;5089236;28;19974;-69
2022/08/25 14:45:50;;;;;;;;;;;31.70;99.90;;;;;;5091723;28;19962;-68
2022/08/25 14:48:25;;;;;;;;;;;31.70;99.90;;;;;;5093463;28;19916;-69
2022/08/25 14:50:53;;;;;;;;;;;31.60;99.90;;;;;;5074281;28;19916;-71
2022/08/25 14:53:19;;;;;;;;;;;31.70;99.90;;;;;;5094287;28;19916;-70